createdAt,value
2023-04-15T00:00:24.397Z,17.45
2023-04-15T00:03:31.626Z,18.83
2023-04-15T00:06:41.250Z,16.86
2023-04-15T00:09:47.914Z,12.92
2023-04-15T00:12:53.961Z,13.40
2023-04-15T00:16:00.431Z,13.64
2023-04-15T00:19:06.088Z,15.53
2023-04-15T00:22:15.569Z,12.51
2023-04-15T00:25:21.416Z,14.30
2023-04-15T00:28:28.341Z,14.02
2023-04-15T00:31:35.309Z,12.71
2023-04-15T00:34:41.961Z,13.36
2023-04-15T00:37:50.229Z,12.96
2023-04-15T00:40:56.899Z,12.63
2023-04-15T00:44:02.741Z,12.08
2023-04-15T00:47:10.159Z,12.86
2023-04-15T00:50:16.387Z,11.94
2023-04-15T00:53:26.232Z,10.18
2023-04-15T00:56:33.865Z,11.91
2023-04-15T00:59:40.874Z,14.72
2023-04-15T01:02:46.628Z,15.93
2023-04-15T01:05:58.581Z,18.22
2023-04-15T01:09:07.570Z,15.78
2023-04-15T01:12:18.434Z,12.49
2023-04-15T01:15:24.117Z,10.16
2023-04-15T01:18:31.730Z,9.24
2023-04-15T01:21:40.468Z,8.84
2023-04-15T01:25:02.215Z,6.80
2023-04-15T01:28:12.428Z,6.46
2023-04-15T01:31:19.110Z,5.21
2023-04-15T01:34:25.261Z,4.00
2023-04-15T01:37:34.301Z,3.63
2023-04-15T01:40:41.086Z,3.43
2023-04-15T01:43:50.221Z,3.49
2023-04-15T01:46:55.786Z,3.55
2023-04-15T01:50:02.473Z,3.53
2023-04-15T01:53:08.878Z,3.91
2023-04-15T01:56:16.852Z,9.93
2023-04-15T01:59:25.951Z,17.87
2023-04-15T02:02:32.696Z,16.74
2023-04-15T02:05:38.578Z,14.88
2023-04-15T02:08:44.994Z,8.31
2023-04-15T02:11:50.802Z,6.94
2023-04-15T02:15:00.355Z,6.05
2023-04-15T02:18:08.443Z,4.72
2023-04-15T02:21:15.769Z,4.86
2023-04-15T02:24:21.427Z,4.96
2023-04-15T02:27:28.784Z,4.79
2023-04-15T02:30:37.671Z,4.14
2023-04-15T02:33:44.116Z,4.83
2023-04-15T02:36:55.170Z,5.65
2023-04-15T02:40:01.237Z,5.41
2023-04-15T02:43:08.370Z,4.20
2023-04-15T02:46:17.151Z,4.42
2023-04-15T02:49:23.696Z,4.23
2023-04-15T02:52:29.287Z,4.28
2023-04-15T02:55:36.211Z,4.35
2023-04-15T02:58:43.367Z,4.21
2023-04-15T03:01:52.827Z,4.11
2023-04-15T03:04:58.551Z,4.15
2023-04-15T03:08:05.109Z,3.97
2023-04-15T03:11:11.109Z,3.91
2023-04-15T03:14:17.632Z,4.19
2023-04-15T03:17:31.241Z,4.63
2023-04-15T03:20:38.764Z,5.90
2023-04-15T03:23:44.565Z,6.38
2023-04-15T03:26:52.164Z,6.66
2023-04-15T03:29:57.723Z,7.81
2023-04-15T03:33:08.740Z,9.32
2023-04-15T03:36:16.315Z,9.47
2023-04-15T03:39:22.713Z,9.59
2023-04-15T03:42:28.218Z,9.42
2023-04-15T03:45:34.849Z,8.75
2023-04-15T03:48:42.979Z,8.20
2023-04-15T03:51:49.757Z,8.15
2023-04-15T03:54:55.439Z,9.86
2023-04-15T03:58:01.901Z,9.76
2023-04-15T04:01:07.707Z,9.74
2023-04-15T04:04:16.950Z,9.27
2023-04-15T04:07:22.650Z,9.17
2023-04-15T04:10:30.263Z,8.80
2023-04-15T04:13:35.859Z,8.58
2023-04-15T04:16:42.336Z,8.73
2023-04-15T04:19:50.555Z,8.90
2023-04-15T04:22:56.963Z,8.94
2023-04-15T04:26:02.879Z,9.86
2023-04-15T04:29:09.372Z,10.67
2023-04-15T04:32:14.990Z,11.99
2023-04-15T04:35:24.399Z,12.28
2023-04-15T04:38:29.946Z,13.40
2023-04-15T04:41:36.483Z,12.94
2023-04-15T04:44:42.245Z,11.88
2023-04-15T04:47:49.412Z,10.06
2023-04-15T04:50:58.068Z,9.62
2023-04-15T04:54:04.684Z,16.84
2023-04-15T04:57:10.837Z,28.96
2023-04-15T05:00:17.892Z,22.41
2023-04-15T05:03:23.740Z,14.57
2023-04-15T05:06:33.433Z,13.65
2023-04-15T05:09:39.171Z,13.07
2023-04-15T05:12:45.911Z,11.76
2023-04-15T05:15:51.936Z,11.29
2023-04-15T05:18:58.327Z,11.66
2023-04-15T05:22:06.639Z,12.96
2023-04-15T05:25:13.125Z,12.50
2023-04-15T05:28:18.710Z,12.39
2023-04-15T05:31:25.188Z,12.17
2023-04-15T05:34:30.718Z,12.33
2023-04-15T05:37:39.780Z,11.92
2023-04-15T05:40:45.455Z,12.50
2023-04-15T05:43:52.176Z,14.55
2023-04-15T05:46:58.195Z,14.32
2023-04-15T05:50:04.730Z,14.22
2023-04-15T05:53:13.098Z,13.55
2023-04-15T05:56:20.580Z,12.16
2023-04-15T05:59:26.275Z,11.33
2023-04-15T06:02:32.958Z,10.92
2023-04-15T06:05:38.847Z,10.54
2023-04-15T06:08:47.749Z,10.66
2023-04-15T06:11:54.798Z,11.13
2023-04-15T06:15:01.196Z,11.91
2023-04-15T06:18:07.107Z,12.09
2023-04-15T06:21:13.869Z,12.28
2023-04-15T06:24:22.358Z,12.23
2023-04-15T06:27:28.897Z,12.84
2023-04-15T06:30:34.466Z,11.69
2023-04-15T06:33:40.964Z,11.72
2023-04-15T06:36:46.780Z,10.79
2023-04-15T06:39:55.920Z,11.65
2023-04-15T06:43:01.544Z,10.62
2023-04-15T06:46:08.424Z,10.39
2023-04-15T06:49:14.447Z,10.14
2023-04-15T06:52:21.427Z,10.68
2023-04-15T06:55:29.877Z,9.63
2023-04-15T06:58:36.580Z,8.78
2023-04-15T07:01:42.203Z,8.42
2023-04-15T07:04:49.162Z,7.96
2023-04-15T07:07:54.861Z,7.46
2023-04-15T07:11:04.073Z,7.47
2023-04-15T07:14:09.649Z,7.43
2023-04-15T07:17:16.102Z,6.77
2023-04-15T07:20:21.952Z,6.73
2023-04-15T07:23:28.632Z,6.45
2023-04-15T07:26:36.863Z,6.12
2023-04-15T07:29:43.162Z,5.47
2023-04-15T07:32:48.866Z,5.08
2023-04-15T07:35:55.395Z,5.47
2023-04-15T07:39:02.490Z,5.08
2023-04-15T07:42:12.037Z,4.60
2023-04-15T07:45:17.983Z,4.73
2023-04-15T07:48:24.312Z,5.48
2023-04-15T07:51:30.125Z,4.74
2023-04-15T07:54:39.045Z,4.22
2023-04-15T07:57:47.534Z,4.17
2023-04-15T08:00:55.436Z,5.53
2023-04-15T08:04:03.064Z,4.10
2023-04-15T08:07:09.599Z,3.69
2023-04-15T08:10:15.354Z,2.91
2023-04-15T08:13:24.622Z,2.91
2023-04-15T08:16:30.667Z,3.05
2023-04-15T08:19:38.971Z,2.68
2023-04-15T08:22:45.042Z,3.11
2023-04-15T08:25:51.523Z,4.04
2023-04-15T08:29:00.851Z,2.82
2023-04-15T08:32:08.602Z,2.58
2023-04-15T08:35:14.992Z,3.21
2023-04-15T08:38:21.428Z,2.60
2023-04-15T08:41:30.245Z,2.91
2023-04-15T08:44:41.539Z,2.86
2023-04-15T08:47:57.798Z,3.82
2023-04-15T08:51:05.419Z,7.78
2023-04-15T08:54:12.918Z,5.71
2023-04-15T08:57:19.872Z,6.23
2023-04-15T09:00:29.863Z,7.87
2023-04-15T09:03:38.293Z,5.35
2023-04-15T09:06:44.661Z,5.19
2023-04-15T09:09:52.667Z,5.65
2023-04-15T09:12:58.515Z,2.72
2023-04-15T09:16:10.134Z,4.35
2023-04-15T09:19:25.992Z,3.80
2023-04-15T09:22:36.048Z,4.53
2023-04-15T09:25:45.090Z,3.41
2023-04-15T09:28:51.587Z,3.54
2023-04-15T09:31:59.843Z,4.03
2023-04-15T09:35:15.795Z,3.20
2023-04-15T09:38:21.609Z,2.27
2023-04-15T09:41:28.755Z,2.26
2023-04-15T09:44:34.394Z,2.49
2023-04-15T09:47:43.512Z,2.02
2023-04-15T09:50:49.624Z,2.51
2023-04-15T09:53:59.758Z,6.09
2023-04-15T09:57:10.975Z,8.10
2023-04-15T10:00:18.713Z,2.87
2023-04-15T10:03:29.435Z,3.94
2023-04-15T10:06:38.146Z,3.10
2023-04-15T10:09:46.015Z,2.33
2023-04-15T10:12:58.650Z,2.37
2023-04-15T10:16:10.308Z,2.96
2023-04-15T10:19:29.609Z,2.96
2023-04-15T10:22:36.403Z,2.99
2023-04-15T10:25:43.516Z,2.46
2023-04-15T10:28:50.254Z,2.66
2023-04-15T10:31:59.160Z,9.53
2023-04-15T10:35:11.081Z,4.01
2023-04-15T10:38:36.613Z,3.27
2023-04-15T10:41:42.756Z,2.89
2023-04-15T10:44:54.786Z,3.11
2023-04-15T10:48:04.393Z,2.95
2023-04-15T10:51:16.865Z,3.64
2023-04-15T10:54:39.207Z,3.06
2023-04-15T10:57:47.427Z,3.22
2023-04-15T11:00:56.705Z,3.03
2023-04-15T11:04:03.673Z,3.01
2023-04-15T11:07:14.697Z,2.88
2023-04-15T11:10:57.273Z,3.03
2023-04-15T11:14:03.272Z,3.35
2023-04-15T11:17:09.935Z,3.34
2023-04-15T11:20:19.501Z,3.26
2023-04-15T11:23:36.964Z,3.26
2023-04-15T11:26:42.582Z,21.71
2023-04-15T11:29:48.957Z,12.32
2023-04-15T11:32:57.618Z,4.30
2023-04-15T11:36:05.006Z,3.90
2023-04-15T11:39:13.171Z,3.89
2023-04-15T11:42:21.649Z,3.73
2023-04-15T11:45:27.435Z,3.36
2023-04-15T11:48:37.020Z,3.47
2023-04-15T11:51:42.743Z,3.63
2023-04-15T11:54:52.114Z,3.16
2023-04-15T11:58:13.519Z,3.62
2023-04-15T12:01:22.149Z,3.68
2023-04-15T12:04:28.026Z,3.31
2023-04-15T12:07:34.825Z,3.61
2023-04-15T12:10:43.139Z,3.52
2023-04-15T12:13:51.611Z,3.73
2023-04-15T12:17:01.669Z,3.51
2023-04-15T12:20:10.465Z,4.46
2023-04-15T12:23:16.523Z,8.93
2023-04-15T12:26:31.564Z,29.38
2023-04-15T12:29:39.662Z,6.49
2023-04-15T12:32:46.362Z,3.51
2023-04-15T12:35:52.090Z,4.00
2023-04-15T12:39:06.348Z,4.11
2023-04-15T12:42:16.202Z,4.16
2023-04-15T12:45:22.807Z,4.12
2023-04-15T12:48:28.714Z,4.07
2023-04-15T12:51:35.109Z,11.11
2023-04-15T12:54:42.818Z,23.28
2023-04-15T12:57:51.806Z,8.01
2023-04-15T13:00:57.619Z,5.55
2023-04-15T13:04:05.002Z,4.31
2023-04-15T13:07:13.736Z,3.23
2023-04-15T13:10:20.734Z,4.59
2023-04-15T13:13:29.346Z,4.12
2023-04-15T13:16:37.527Z,3.69
2023-04-15T13:19:43.098Z,3.82
2023-04-15T13:22:52.064Z,4.05
2023-04-15T13:25:58.512Z,3.74
2023-04-15T13:29:07.744Z,3.72
2023-04-15T13:32:13.462Z,3.45
2023-04-15T13:35:20.361Z,3.27
2023-04-15T13:38:27.915Z,3.60
2023-04-15T13:41:34.481Z,3.55
2023-04-15T13:44:43.229Z,3.86
2023-04-15T13:47:49.767Z,3.49
2023-04-15T13:50:55.530Z,3.69
2023-04-15T13:54:02.136Z,4.47
2023-04-15T13:57:08.615Z,3.72
2023-04-15T14:00:19.000Z,3.40
2023-04-15T14:03:24.866Z,3.45
2023-04-15T14:06:33.356Z,3.57
2023-04-15T14:09:43.329Z,3.71
2023-04-15T14:12:50.092Z,3.97
2023-04-15T14:15:59.619Z,4.25
2023-04-15T14:19:06.727Z,3.87
2023-04-15T14:22:12.695Z,4.48
2023-04-15T14:25:30.543Z,3.81
2023-04-15T14:28:39.760Z,3.83
2023-04-15T14:32:04.473Z,4.47
2023-04-15T14:35:15.774Z,5.53
2023-04-15T14:38:22.854Z,6.44
2023-04-15T14:41:28.698Z,4.88
2023-04-15T14:44:35.233Z,5.09
2023-04-15T14:47:43.584Z,5.26
2023-04-15T14:50:50.087Z,5.42
2023-04-15T14:53:55.708Z,4.94
2023-04-15T14:57:02.281Z,14.06
2023-04-15T15:00:11.078Z,15.91
2023-04-15T15:03:21.395Z,9.82
2023-04-15T15:06:28.052Z,19.19
2023-04-15T15:09:35.185Z,14.12
2023-04-15T15:12:40.751Z,8.17
2023-04-15T15:15:49.505Z,9.45
2023-04-15T15:18:58.440Z,5.97
2023-04-15T15:22:06.099Z,5.56
2023-04-15T15:25:12.026Z,6.65
2023-04-15T15:28:18.461Z,9.12
2023-04-15T15:31:24.080Z,7.45
2023-04-15T15:34:34.160Z,6.38
2023-04-15T15:37:41.123Z,6.52
2023-04-15T15:40:47.577Z,7.65
2023-04-15T15:43:53.339Z,8.41
2023-04-15T15:46:59.952Z,9.37
2023-04-15T15:50:11.911Z,7.19
2023-04-15T15:53:21.038Z,8.10
2023-04-15T15:56:27.223Z,8.45
2023-04-15T15:59:33.608Z,8.74
2023-04-15T16:05:52.860Z,13.78
2023-04-15T16:08:58.620Z,20.40
2023-04-15T16:12:05.732Z,21.67
2023-04-15T16:15:13.640Z,21.87
2023-04-15T16:18:20.112Z,17.34
2023-04-15T16:21:28.462Z,19.12
2023-04-15T16:24:36.295Z,20.39
2023-04-15T16:27:57.289Z,14.03
2023-04-15T16:31:07.721Z,13.98
2023-04-15T16:34:16.068Z,17.35
2023-04-15T16:37:25.202Z,16.95
2023-04-15T16:40:31.519Z,16.07
2023-04-15T16:43:38.256Z,19.44
2023-04-15T16:46:44.255Z,23.65
2023-04-15T16:49:51.302Z,22.96
2023-04-15T16:53:01.576Z,16.44
2023-04-15T16:56:08.879Z,14.21
2023-04-15T16:59:14.653Z,15.63
2023-04-15T17:02:21.938Z,15.58
2023-04-15T17:05:27.898Z,21.48
2023-04-15T17:08:36.929Z,19.00
2023-04-15T17:11:44.737Z,15.32
2023-04-15T17:14:51.144Z,12.24
2023-04-15T17:17:56.762Z,13.46
2023-04-15T17:21:03.314Z,12.76
2023-04-15T17:24:12.050Z,8.95
2023-04-15T17:27:21.501Z,8.73
2023-04-15T17:30:27.438Z,27.52
2023-04-15T17:33:55.896Z,9.13
2023-04-15T17:37:00.065Z,9.47
2023-04-15T17:40:11.641Z,12.96
2023-04-15T17:43:17.310Z,9.62
2023-04-15T17:46:23.845Z,15.09
2023-04-15T17:49:31.435Z,13.03
2023-04-15T17:52:38.031Z,25.86
2023-04-15T17:55:46.822Z,30.23
2023-04-15T17:58:53.356Z,27.62
2023-04-15T18:01:59.305Z,29.20
2023-04-15T18:05:06.265Z,30.55
2023-04-15T18:08:12.042Z,34.81
2023-04-15T18:11:23.880Z,22.58
2023-04-15T18:14:34.745Z,20.02
2023-04-15T18:17:41.657Z,20.58
2023-04-15T18:20:50.737Z,21.82
2023-04-15T18:23:57.236Z,21.91
2023-04-15T18:27:06.133Z,17.79
2023-04-15T18:30:15.565Z,19.79
2023-04-15T18:33:21.269Z,15.36
2023-04-15T18:36:29.649Z,17.83
2023-04-15T18:39:35.223Z,20.30
2023-04-15T18:42:44.163Z,30.06
2023-04-15T18:45:49.852Z,44.44
2023-04-15T18:48:56.491Z,29.23
2023-04-15T18:52:02.963Z,28.57
2023-04-15T18:55:11.338Z,31.51
2023-04-15T18:58:19.633Z,49.81
2023-04-15T19:01:26.611Z,59.62
2023-04-15T19:04:32.299Z,79.37
2023-04-15T19:07:39.423Z,56.11
2023-04-15T19:10:45.791Z,40.95
2023-04-15T19:13:55.549Z,28.44
2023-04-15T19:17:03.469Z,61.64
2023-04-15T19:20:11.495Z,27.22
2023-04-15T19:23:17.175Z,27.72
2023-04-15T19:26:23.569Z,23.58
2023-04-15T19:29:31.906Z,29.36
2023-04-15T19:32:38.629Z,28.12
2023-04-15T19:35:44.478Z,37.18
2023-04-15T19:38:51.103Z,29.40
2023-04-15T19:41:56.914Z,26.62
2023-04-15T19:45:06.370Z,36.68
2023-04-15T19:48:12.603Z,30.89
2023-04-15T19:51:19.950Z,16.38
2023-04-15T19:54:26.337Z,17.06
2023-04-15T19:57:33.204Z,16.02
2023-04-15T20:00:41.965Z,15.95
2023-04-15T20:03:48.682Z,16.43
2023-04-15T20:06:55.053Z,24.42
2023-04-15T20:10:01.498Z,28.89
2023-04-15T20:13:07.222Z,29.77
2023-04-15T20:16:17.002Z,28.51
2023-04-15T20:19:22.742Z,35.71
2023-04-15T20:22:29.178Z,48.93
2023-04-15T20:25:34.792Z,34.58
2023-04-15T20:28:41.517Z,36.10
2023-04-15T20:31:49.913Z,39.01
2023-04-15T20:34:56.465Z,36.34
2023-04-15T20:38:02.935Z,32.86
2023-04-15T20:41:09.762Z,27.00
2023-04-15T20:44:15.620Z,27.79
2023-04-15T20:47:24.863Z,29.30
2023-04-15T20:50:30.838Z,31.25
2023-04-15T20:53:37.218Z,31.78
2023-04-15T20:56:42.777Z,32.87
2023-04-15T20:59:49.295Z,34.12
2023-04-15T21:02:57.640Z,35.83
2023-04-15T21:06:04.067Z,35.74
2023-04-15T21:09:09.767Z,35.48
2023-04-15T21:12:16.378Z,34.91
2023-04-15T21:15:22.238Z,34.67
2023-04-15T21:18:31.432Z,35.22
2023-04-15T21:21:36.993Z,33.45
2023-04-15T21:24:43.611Z,31.14
2023-04-15T21:27:49.241Z,33.01
2023-04-15T21:30:55.721Z,61.88
2023-04-15T21:34:04.056Z,41.13
2023-04-15T21:37:10.586Z,38.10
2023-04-15T21:40:18.801Z,36.56
2023-04-15T21:43:25.870Z,34.90
2023-04-15T21:46:33.233Z,32.71
2023-04-15T21:49:44.542Z,31.89
2023-04-15T21:52:50.169Z,28.95
2023-04-15T21:55:56.524Z,31.82
2023-04-15T21:59:04.870Z,34.93
2023-04-15T22:02:11.833Z,31.93
2023-04-15T22:05:21.624Z,24.93
2023-04-15T22:08:28.069Z,24.51
2023-04-15T22:11:33.767Z,25.84
2023-04-15T22:14:40.183Z,28.48
2023-04-15T22:17:45.902Z,33.72
2023-04-15T22:20:54.926Z,32.71
2023-04-15T22:24:38.869Z,30.10
2023-04-15T22:27:27.449Z,31.44
2023-04-15T22:30:33.119Z,34.31
2023-04-15T22:33:39.599Z,38.48
2023-04-15T22:36:47.837Z,38.86
2023-04-15T22:39:55.259Z,35.56
2023-04-15T22:43:00.943Z,39.50
2023-04-15T22:46:08.607Z,39.30
2023-04-15T22:49:14.294Z,33.80
2023-04-15T22:52:30.141Z,39.82
2023-04-15T22:55:36.849Z,51.95
2023-04-15T22:58:43.315Z,50.18
2023-04-15T23:01:49.069Z,50.80
2023-04-15T23:04:55.892Z,50.78
2023-04-15T23:08:04.290Z,49.88
2023-04-15T23:11:11.373Z,50.66
2023-04-15T23:14:17.117Z,50.37
2023-04-15T23:17:23.659Z,50.51
2023-04-15T23:20:29.417Z,49.31
2023-04-15T23:23:38.493Z,54.32
2023-04-15T23:26:44.256Z,53.11
2023-04-15T23:29:50.736Z,53.42
2023-04-15T23:32:58.339Z,51.89
2023-04-15T23:36:04.867Z,52.58
2023-04-15T23:39:13.076Z,51.84
2023-04-15T23:42:19.582Z,52.16
2023-04-15T23:45:25.448Z,51.93
2023-04-15T23:48:31.947Z,50.93
2023-04-15T23:51:37.579Z,49.09
2023-04-15T23:54:46.622Z,47.85
2023-04-15T23:57:52.154Z,49.00
